EGNM - Leeds, Bradford
Distance from station: E 5mi, 14km
Updated: 10/17/2017 12:50pm
Partly Cloudy
Partly Cloudy
 Wind from WSW
Wind: WSW 6 mph , 9 km/h
Temperature: 50°F , 10°C
Wind Chill: 48°F , 9°C
Dew Point: 48°F , 9°C
Humidity: 94%
Barometer: 29.97 inHg , 1015 hPa
Clouds: Partly Cloudy
Visibility: 6 miles , 10 km
Cloud details: Partly Cloudy 2600 ft
2017/10/17 19:50 EGNM 171950Z 25005KT 220V300 9999 SCT026 10/09 Q1015